createdAt,value
2019-04-25T00:01:01.180Z,97377.75
2019-04-25T00:03:36.689Z,97371.23
2019-04-25T00:06:08.806Z,97374.69
2019-04-25T00:08:41.330Z,97384.83
2019-04-25T00:11:15.054Z,97372.09
2019-04-25T00:13:47.866Z,97387.78
2019-04-25T00:16:22.032Z,97392.34
2019-04-25T00:18:54.020Z,97386.61
2019-04-25T00:21:55.530Z,97383.59
2019-04-25T00:24:54.453Z,97386.95
2019-04-25T00:27:26.622Z,97383.89
2019-04-25T00:29:58.616Z,97385.55
2019-04-25T00:32:31.576Z,97388.16
2019-04-25T00:35:04.004Z,97385.05
2019-04-25T00:37:37.120Z,97390.49
2019-04-25T00:40:09.137Z,97393.34
2019-04-25T00:42:42.789Z,97400.72
2019-04-25T00:45:15.166Z,97398.77
2019-04-25T00:47:47.751Z,97407.72
2019-04-25T00:50:19.926Z,97394.97
2019-04-25T00:52:53.241Z,97398.30
2019-04-25T00:55:28.907Z,97401.83
2019-04-25T00:58:11.479Z,97404.07
2019-04-25T01:01:18.067Z,97404.72
2019-04-25T01:03:50.293Z,97403.50
2019-04-25T01:06:22.262Z,97403.67
2019-04-25T01:08:55.823Z,97396.88
2019-04-25T01:11:28.307Z,97395.11
2019-04-25T01:14:00.256Z,97402.04
2019-04-25T01:16:33.742Z,97406.20
2019-04-25T01:19:06.281Z,97399.05
2019-04-25T01:21:38.234Z,97403.03
2019-04-25T01:24:10.590Z,97401.61
2019-04-25T01:26:43.860Z,97396.81
2019-04-25T01:29:15.940Z,97396.10
2019-04-25T01:31:48.018Z,97398.16
2019-04-25T01:34:27.558Z,97410.30
2019-04-25T01:37:07.834Z,97406.78
2019-04-25T01:39:49.009Z,97415.94
2019-04-25T01:42:39.167Z,97410.59
2019-04-25T01:45:11.263Z,97412.38
2019-04-25T01:47:43.447Z,97424.08
2019-04-25T01:50:17.128Z,97425.29
2019-04-25T01:52:49.070Z,97431.68
2019-04-25T01:55:21.050Z,97432.95
2019-04-25T01:57:54.776Z,97425.75
2019-04-25T02:00:33.596Z,97431.64
2019-04-25T02:03:06.257Z,97428.30
2019-04-25T02:05:38.252Z,97425.06
2019-04-25T02:08:10.249Z,97428.70
2019-04-25T02:10:44.111Z,97431.39
2019-04-25T02:13:18.601Z,97433.58
2019-04-25T02:15:51.527Z,97433.77
2019-04-25T02:18:24.151Z,97437.45
2019-04-25T02:20:58.892Z,97437.06
2019-04-25T02:23:30.001Z,97436.30
2019-04-25T02:26:13.930Z,97440.66
2019-04-25T02:28:35.803Z,97435.31
2019-04-25T02:31:08.861Z,97431.04
2019-04-25T02:33:40.915Z,97437.52
2019-04-25T02:36:15.047Z,97444.75
2019-04-25T02:38:46.800Z,97447.69
2019-04-25T02:41:18.725Z,97455.81
2019-04-25T02:43:50.702Z,97453.97
2019-04-25T02:46:56.168Z,97441.56
2019-04-25T02:49:39.358Z,97449.68
2019-04-25T02:52:20.803Z,97446.39
2019-04-25T02:54:55.725Z,97436.01
2019-04-25T02:57:26.623Z,97435.77
2019-04-25T02:59:58.609Z,97436.48
2019-04-25T03:02:30.568Z,97439.73
2019-04-25T03:05:06.251Z,97429.30
2019-04-25T03:07:36.446Z,97439.14
2019-04-25T03:10:10.442Z,97435.09
2019-04-25T03:12:44.532Z,97440.84
2019-04-25T03:15:16.287Z,97450.33
2019-04-25T03:17:48.235Z,97449.01
2019-04-25T03:20:38.211Z,97441.84
2019-04-25T03:23:28.664Z,97444.43
2019-04-25T03:26:00.669Z,97445.63
2019-04-25T03:28:33.928Z,97440.36
2019-04-25T03:31:11.334Z,97448.01
2019-04-25T03:33:39.963Z,97449.86
2019-04-25T03:36:11.922Z,97455.92
2019-04-25T03:38:44.206Z,97463.64
2019-04-25T03:41:16.135Z,97460.92
2019-04-25T03:43:48.093Z,97466.06
2019-04-25T03:46:20.051Z,97460.22
2019-04-25T03:48:52.030Z,97472.31
2019-04-25T03:51:24.132Z,97466.89
2019-04-25T03:53:56.134Z,97469.42
2019-04-25T03:56:28.069Z,97474.98
2019-04-25T03:59:00.036Z,97475.20
2019-04-25T04:01:31.981Z,97477.45
2019-04-25T04:04:05.728Z,97481.23
2019-04-25T04:06:38.161Z,97470.58
2019-04-25T04:09:10.233Z,97477.98
2019-04-25T04:11:43.525Z,97470.37
2019-04-25T04:14:15.800Z,97465.90
2019-04-25T04:17:06.695Z,97476.20
2019-04-25T04:19:47.472Z,97471.72
2019-04-25T04:22:26.015Z,97466.45
2019-04-25T04:24:59.337Z,97462.92
2019-04-25T04:27:31.264Z,97457.51
2019-04-25T04:30:04.239Z,97455.25
2019-04-25T04:32:36.303Z,97460.34
2019-04-25T04:35:08.662Z,97462.48
2019-04-25T04:37:40.767Z,97457.83
2019-04-25T04:40:14.726Z,97451.17
2019-04-25T04:42:46.572Z,97448.70
2019-04-25T04:45:18.522Z,97443.04
2019-04-25T04:47:50.488Z,97433.36
2019-04-25T04:50:23.252Z,97435.94
2019-04-25T04:52:56.324Z,97434.48
2019-04-25T04:55:28.355Z,97440.70
2019-04-25T04:58:01.454Z,97437.47
2019-04-25T05:00:33.952Z,97450.91
2019-04-25T05:03:31.362Z,97446.16
2019-04-25T05:06:27.076Z,97442.63
2019-04-25T05:09:07.511Z,97434.56
2019-04-25T05:11:39.486Z,97444.35
2019-04-25T05:14:11.857Z,97448.97
2019-04-25T05:16:43.905Z,97446.45
2019-04-25T05:19:16.831Z,97438.52
2019-04-25T05:21:49.063Z,97435.67
2019-04-25T05:24:21.038Z,97439.00
2019-04-25T05:26:53.978Z,97431.19
2019-04-25T05:29:26.641Z,97434.50
2019-04-25T05:31:58.779Z,97428.16
2019-04-25T05:34:30.751Z,97430.20
2019-04-25T05:37:03.857Z,97425.87
2019-04-25T05:39:35.939Z,97425.50
2019-04-25T05:42:24.789Z,97421.20
2019-04-25T05:44:58.747Z,97419.66
2019-04-25T05:47:30.743Z,97419.24
2019-04-25T05:50:04.170Z,97413.55
2019-04-25T05:52:36.327Z,97413.08
2019-04-25T05:55:08.283Z,97401.05
2019-04-25T05:57:47.325Z,97404.77
2019-04-25T06:00:16.675Z,97407.50
2019-04-25T06:02:50.065Z,97404.80
2019-04-25T06:05:23.389Z,97405.59
2019-04-25T06:07:55.948Z,97410.34
2019-04-25T06:10:37.274Z,97403.22
2019-04-25T06:13:28.834Z,97400.28
2019-04-25T06:16:08.439Z,97398.32
2019-04-25T06:18:52.914Z,97394.31
2019-04-25T06:21:25.643Z,97384.77
2019-04-25T06:24:18.302Z,97386.02
2019-04-25T06:27:00.414Z,97391.05
2019-04-25T06:29:34.697Z,97396.89
2019-04-25T06:32:08.531Z,97388.99
2019-04-25T06:34:40.334Z,97393.78
2019-04-25T06:37:13.785Z,97389.29
2019-04-25T06:39:47.087Z,97396.52
2019-04-25T06:42:19.033Z,97400.88
2019-04-25T06:45:03.504Z,97393.19
2019-04-25T06:48:01.175Z,97395.96
2019-04-25T06:50:34.098Z,97391.48
2019-04-25T06:53:08.793Z,97380.02
2019-04-25T06:55:40.800Z,97381.28
2019-04-25T06:58:14.529Z,97381.45
2019-04-25T07:00:58.178Z,97385.20
2019-04-25T07:03:20.866Z,97380.59
2019-04-25T07:05:53.589Z,97375.09
2019-04-25T07:08:26.681Z,97374.16
2019-04-25T07:10:58.985Z,97370.41
2019-04-25T07:13:31.011Z,97369.54
2019-04-25T07:16:04.610Z,97364.73
2019-04-25T07:18:37.379Z,97360.44
2019-04-25T07:21:09.481Z,97351.13
2019-04-25T07:23:43.507Z,97351.30
2019-04-25T07:26:30.410Z,97351.80
2019-04-25T07:29:13.456Z,97357.85
2019-04-25T07:31:57.061Z,97351.70
2019-04-25T07:34:29.482Z,97353.70
2019-04-25T07:37:01.495Z,97356.36
2019-04-25T07:39:34.389Z,97350.56
2019-04-25T07:42:07.269Z,97353.21
2019-04-25T07:44:49.870Z,97343.00
2019-04-25T07:47:13.707Z,97345.48
2019-04-25T07:49:47.227Z,97338.50
2019-04-25T07:52:19.203Z,97332.48
2019-04-25T07:54:51.177Z,97334.34
2019-04-25T07:57:23.852Z,97329.57
2019-04-25T07:59:55.935Z,97336.98
2019-04-25T08:02:28.525Z,97337.81
2019-04-25T08:05:04.243Z,97341.34
2019-04-25T08:07:36.358Z,97339.59
2019-04-25T08:10:09.167Z,97344.80
2019-04-25T08:12:41.764Z,97335.69
2019-04-25T08:15:30.019Z,97329.60
2019-04-25T08:18:04.197Z,97328.30
2019-04-25T08:20:37.013Z,97318.72
2019-04-25T08:23:09.141Z,97316.97
2019-04-25T08:25:41.096Z,97323.54
2019-04-25T08:28:13.815Z,97312.25
2019-04-25T08:30:45.834Z,97311.79
2019-04-25T08:33:17.811Z,97318.73
2019-04-25T08:36:04.600Z,97313.97
2019-04-25T08:38:23.945Z,97313.09
2019-04-25T08:40:55.955Z,97309.59
2019-04-25T08:43:27.945Z,97313.55
2019-04-25T08:45:59.899Z,97313.95
2019-04-25T08:48:35.830Z,97319.59
2019-04-25T08:51:13.435Z,97310.91
2019-04-25T08:53:55.807Z,97312.22
2019-04-25T08:56:32.012Z,97307.44
2019-04-25T08:59:34.155Z,97293.52
2019-04-25T09:02:10.241Z,97318.73
2019-04-25T09:05:01.850Z,97311.78
2019-04-25T09:07:35.371Z,97302.22
2019-04-25T09:10:08.216Z,97307.86
2019-04-25T09:12:40.189Z,97300.08
2019-04-25T09:15:14.105Z,97295.28
2019-04-25T09:17:47.190Z,97298.77
2019-04-25T09:20:19.694Z,97303.09
2019-04-25T09:22:51.680Z,97289.64
2019-04-25T09:25:23.944Z,97287.85
2019-04-25T09:27:55.970Z,97290.07
2019-04-25T09:30:27.932Z,97288.33
2019-04-25T09:32:59.883Z,97287.89
2019-04-25T09:35:33.524Z,97283.08
2019-04-25T09:38:05.683Z,97277.83
2019-04-25T09:40:37.708Z,97276.03
2019-04-25T09:43:09.669Z,97272.09
2019-04-25T09:45:55.005Z,97281.95
2019-04-25T09:48:58.496Z,97268.39
2019-04-25T09:51:36.108Z,97266.14
2019-04-25T09:54:26.500Z,97261.94
2019-04-25T09:57:06.520Z,97265.37
2019-04-25T09:59:39.356Z,97265.28
2019-04-25T10:02:12.271Z,97258.38
2019-04-25T10:04:45.485Z,97249.63
2019-04-25T10:07:18.096Z,97247.80
2019-04-25T10:09:50.394Z,97254.67
2019-04-25T10:12:23.113Z,97257.26
2019-04-25T10:15:08.348Z,97241.95
2019-04-25T10:17:41.134Z,97243.69
2019-04-25T10:20:14.658Z,97242.84
2019-04-25T10:22:46.692Z,97246.93
2019-04-25T10:25:18.675Z,97235.15
2019-04-25T10:27:50.691Z,97225.41
2019-04-25T10:30:24.317Z,97229.30
2019-04-25T10:32:56.509Z,97231.81
2019-04-25T10:35:28.749Z,97227.59
2019-04-25T10:38:00.737Z,97219.81
2019-04-25T10:40:33.824Z,97211.00
2019-04-25T10:43:06.490Z,97218.23
2019-04-25T10:45:38.444Z,97210.94
2019-04-25T10:48:10.382Z,97212.18
2019-04-25T10:50:43.257Z,97209.98
2019-04-25T10:53:15.846Z,97202.07
2019-04-25T10:55:47.921Z,97202.72
2019-04-25T10:58:19.936Z,97200.07
2019-04-25T11:00:53.024Z,97191.51
2019-04-25T11:03:45.198Z,97197.16
2019-04-25T11:06:20.688Z,97192.59
2019-04-25T11:08:55.425Z,97191.66
2019-04-25T11:11:26.577Z,97185.19
2019-04-25T11:13:58.781Z,97181.06
2019-04-25T11:16:30.743Z,97179.95
2019-04-25T11:19:02.741Z,97181.09
2019-04-25T11:21:34.713Z,97184.70
2019-04-25T11:24:06.701Z,97182.91
2019-04-25T11:26:38.687Z,97174.44
2019-04-25T11:29:10.680Z,97183.43
2019-04-25T11:31:47.337Z,97166.88
2019-04-25T11:34:20.613Z,97171.82
2019-04-25T11:36:52.607Z,97179.19
2019-04-25T11:39:45.063Z,97172.93
2019-04-25T11:42:18.051Z,97173.80
2019-04-25T11:44:50.046Z,97161.61
2019-04-25T11:47:24.191Z,97160.58
2019-04-25T11:49:56.289Z,97160.28
2019-04-25T11:52:30.232Z,97178.08
2019-04-25T11:55:04.078Z,97157.69
2019-04-25T11:57:36.189Z,97151.80
2019-04-25T12:00:21.348Z,97148.91
2019-04-25T12:02:43.897Z,97148.09
2019-04-25T12:05:16.070Z,97148.05
2019-04-25T12:07:48.024Z,97135.41
2019-04-25T12:10:20.746Z,97131.80
2019-04-25T12:12:53.714Z,97135.27
2019-04-25T12:15:26.132Z,97132.86
2019-04-25T12:17:58.070Z,97129.08
2019-04-25T12:20:30.055Z,97135.37
2019-04-25T12:23:08.431Z,97121.70
2019-04-25T12:25:35.911Z,97126.44
2019-04-25T12:28:07.902Z,97127.85
2019-04-25T12:30:40.512Z,97112.87
2019-04-25T12:33:20.752Z,97120.91
2019-04-25T12:35:47.821Z,97128.61
2019-04-25T12:38:20.435Z,97120.20
2019-04-25T12:40:54.083Z,97124.55
2019-04-25T12:43:28.411Z,97116.98
2019-04-25T12:46:26.064Z,97127.83
2019-04-25T12:48:58.051Z,97124.20
2019-04-25T12:51:30.125Z,97113.42
2019-04-25T12:54:03.874Z,97102.90
2019-04-25T12:56:36.017Z,97105.30
2019-04-25T12:59:08.010Z,97098.14
2019-04-25T13:01:40.005Z,97094.38
2019-04-25T13:04:11.980Z,97096.36
2019-04-25T13:06:43.969Z,97092.45
2019-04-25T13:09:15.945Z,97082.87
2019-04-25T13:11:47.947Z,97086.11
2019-04-25T13:14:19.887Z,97080.77
2019-04-25T13:16:51.901Z,97086.23
2019-04-25T13:19:26.337Z,97074.05
2019-04-25T13:21:57.980Z,97076.63
2019-04-25T13:24:29.984Z,97069.55
2019-04-25T13:27:07.931Z,97082.53
2019-04-25T13:30:03.250Z,97078.95
2019-04-25T13:32:47.576Z,97076.34
2019-04-25T13:35:29.870Z,97073.24
2019-04-25T13:38:01.909Z,97071.83
2019-04-25T13:40:33.942Z,97056.95
2019-04-25T13:43:06.185Z,97063.97
2019-04-25T13:45:38.176Z,97061.12
2019-04-25T13:48:10.174Z,97069.59
2019-04-25T13:50:42.137Z,97058.10
2019-04-25T13:53:14.120Z,97051.44
2019-04-25T13:55:46.121Z,97057.52
2019-04-25T13:58:18.129Z,97051.78
2019-04-25T14:00:50.094Z,97046.06
2019-04-25T14:03:22.943Z,97039.19
2019-04-25T14:05:55.142Z,97028.76
2019-04-25T14:08:27.132Z,97023.74
2019-04-25T14:10:59.086Z,97028.26
2019-04-25T14:13:31.071Z,97027.28
2019-04-25T14:16:18.369Z,97023.35
2019-04-25T14:19:09.942Z,97006.04
2019-04-25T14:21:43.423Z,97007.06
2019-04-25T14:24:20.660Z,97000.28
2019-04-25T14:26:49.448Z,96993.63
2019-04-25T14:29:22.352Z,97015.84
2019-04-25T14:31:54.330Z,96990.86
2019-04-25T14:34:26.579Z,97001.44
2019-04-25T14:36:58.606Z,96994.12
2019-04-25T14:39:30.586Z,97001.22
2019-04-25T14:42:02.581Z,96989.39
2019-04-25T14:44:34.578Z,96984.52
2019-04-25T14:47:06.641Z,96984.16
2019-04-25T14:49:38.643Z,96988.29
2019-04-25T14:52:10.616Z,96977.04
2019-04-25T14:54:57.571Z,96978.27
2019-04-25T14:57:30.423Z,96975.52
2019-04-25T15:00:04.753Z,96975.78
2019-04-25T15:02:36.925Z,96968.59
2019-04-25T15:05:08.929Z,96974.16
2019-04-25T15:07:40.892Z,96962.94
2019-04-25T15:10:12.889Z,96961.83
2019-04-25T15:12:44.881Z,96956.38
2019-04-25T15:15:16.885Z,96941.97
2019-04-25T15:17:48.825Z,96953.18
2019-04-25T15:20:20.905Z,96949.39
2019-04-25T15:22:52.922Z,96944.73
2019-04-25T15:25:25.124Z,96940.59
2019-04-25T15:27:58.226Z,96947.99
2019-04-25T15:30:31.945Z,96944.20
2019-04-25T15:33:04.201Z,96948.18
2019-04-25T15:35:42.550Z,96952.90
2019-04-25T15:38:20.136Z,96948.00
2019-04-25T15:41:02.463Z,96951.14
2019-04-25T15:43:42.329Z,96946.67
2019-04-25T15:46:20.939Z,96941.58
2019-04-25T15:48:52.946Z,96941.19
2019-04-25T15:51:25.556Z,96948.24
2019-04-25T15:53:57.605Z,96948.56
2019-04-25T15:56:30.275Z,96948.89
2019-04-25T15:59:02.447Z,96946.81
2019-04-25T16:01:34.654Z,96951.98
2019-04-25T16:04:06.645Z,96939.94
2019-04-25T16:06:38.711Z,96943.79
2019-04-25T16:09:10.700Z,96943.86
2019-04-25T16:11:42.719Z,96948.62
2019-04-25T16:14:14.715Z,96937.70
2019-04-25T16:16:46.733Z,96933.23
2019-04-25T16:19:18.716Z,96934.38
2019-04-25T16:21:50.706Z,96938.02
2019-04-25T16:24:22.667Z,96936.50
2019-04-25T16:26:54.696Z,96938.70
2019-04-25T16:29:27.648Z,96938.37
2019-04-25T16:32:01.815Z,96934.51
2019-04-25T16:34:34.234Z,96937.23
2019-04-25T16:37:06.282Z,96939.67
2019-04-25T16:39:38.576Z,96942.23
2019-04-25T16:42:10.687Z,96946.20
2019-04-25T16:44:42.740Z,96938.34
2019-04-25T16:47:16.641Z,96943.81
2019-04-25T16:49:48.611Z,96943.51
2019-04-25T16:52:21.041Z,96947.88
2019-04-25T16:54:53.011Z,96946.56
2019-04-25T16:57:25.000Z,96955.27
2019-04-25T16:59:56.981Z,96954.77
2019-04-25T17:02:36.556Z,96951.53
2019-04-25T17:05:08.088Z,96952.52
2019-04-25T17:07:40.971Z,96947.66
2019-04-25T17:10:14.477Z,96952.44
2019-04-25T17:12:46.470Z,96951.17
2019-04-25T17:15:43.891Z,96954.74
2019-04-25T17:18:19.920Z,96954.50
2019-04-25T17:21:00.030Z,96964.02
2019-04-25T17:23:32.367Z,96960.50
2019-04-25T17:26:04.527Z,96964.15
2019-04-25T17:28:39.270Z,96959.23
2019-04-25T17:31:29.760Z,96963.33
2019-04-25T17:34:24.123Z,96967.30
2019-04-25T17:37:13.649Z,96963.83
2019-04-25T17:39:49.136Z,96969.05
2019-04-25T17:42:21.186Z,96973.78
2019-04-25T17:44:53.216Z,96972.79
2019-04-25T17:47:25.243Z,96975.58
2019-04-25T17:49:57.231Z,96984.30
2019-04-25T17:52:29.289Z,96982.04
2019-04-25T17:55:01.322Z,96984.65
2019-04-25T17:57:33.337Z,96986.84
2019-04-25T18:00:08.184Z,96986.50
2019-04-25T18:02:40.155Z,96990.35
2019-04-25T18:05:12.155Z,96985.20
2019-04-25T18:07:44.573Z,96986.70
2019-04-25T18:10:16.826Z,96985.84
2019-04-25T18:12:48.826Z,96989.78
2019-04-25T18:15:28.046Z,96994.28
2019-04-25T18:18:01.966Z,97002.70
2019-04-25T18:20:36.731Z,96999.73
2019-04-25T18:23:17.145Z,97005.06
2019-04-25T18:26:08.754Z,97008.98
2019-04-25T18:28:45.739Z,97013.39
2019-04-25T18:31:17.881Z,97015.17
2019-04-25T18:33:52.874Z,97014.81
2019-04-25T18:36:43.315Z,97015.72
2019-04-25T18:39:24.137Z,97019.70
2019-04-25T18:42:27.758Z,97026.64
2019-04-25T18:44:59.774Z,97035.77
2019-04-25T18:47:31.793Z,97040.56
2019-04-25T18:50:04.216Z,97043.14
2019-04-25T18:53:07.881Z,97047.06
2019-04-25T18:55:49.714Z,97047.89
2019-04-25T18:58:39.898Z,97045.66
2019-04-25T19:01:19.785Z,97058.22
2019-04-25T19:07:01.702Z,97059.81
2019-04-25T19:09:33.722Z,97068.84
2019-04-25T19:12:05.742Z,97092.13
2019-04-25T19:14:39.835Z,97114.54
2019-04-25T19:17:11.891Z,97116.70
2019-04-25T19:19:44.062Z,97131.90
2019-04-25T19:22:16.114Z,97144.86
2019-04-25T19:24:48.697Z,97154.77
2019-04-25T19:27:23.814Z,97165.02
2019-04-25T19:29:54.807Z,97176.98
2019-04-25T19:32:27.516Z,97182.98
2019-04-25T19:34:59.566Z,97200.14
2019-04-25T19:37:31.829Z,97196.59
2019-04-25T19:40:33.273Z,97205.97
2019-04-25T19:43:18.976Z,97218.04
2019-04-25T19:45:51.238Z,97223.29
2019-04-25T19:48:23.288Z,97220.94
2019-04-25T19:50:55.424Z,97219.57
2019-04-25T19:53:27.428Z,97227.67
2019-04-25T19:55:59.533Z,97231.66
2019-04-25T19:58:31.562Z,97240.41
2019-04-25T20:01:03.737Z,97241.70
2019-04-25T20:03:52.038Z,97245.73
2019-04-25T20:06:37.911Z,97250.73
2019-04-25T20:09:35.340Z,97260.38
2019-04-25T20:12:07.544Z,97271.67
2019-04-25T20:14:39.559Z,97280.86
2019-04-25T20:17:11.705Z,97280.67
2019-04-25T20:19:44.895Z,97288.66
2019-04-25T20:22:17.694Z,97300.95
2019-04-25T20:24:50.392Z,97304.17
2019-04-25T20:27:22.417Z,97305.83
2019-04-25T20:29:54.620Z,97314.09
2019-04-25T20:32:27.015Z,97317.89
2019-04-25T20:34:59.074Z,97322.25
2019-04-25T20:37:31.103Z,97330.14
2019-04-25T20:40:04.041Z,97336.09
2019-04-25T20:42:36.050Z,97348.44
2019-04-25T20:45:08.216Z,97350.81
2019-04-25T20:47:40.271Z,97358.06
2019-04-25T20:50:12.433Z,97363.25
2019-04-25T20:52:44.468Z,97363.62
2019-04-25T20:55:16.597Z,97374.31
2019-04-25T20:57:49.417Z,97379.61
2019-04-25T21:00:55.904Z,97377.06
2019-04-25T21:03:28.227Z,97366.91
2019-04-25T21:06:13.133Z,97372.77
2019-04-25T21:08:45.155Z,97381.53
2019-04-25T21:11:17.437Z,97392.13
2019-04-25T21:14:07.589Z,97383.19
2019-04-25T21:16:58.883Z,97390.89
2019-04-25T21:19:33.191Z,97394.25
2019-04-25T21:22:05.216Z,97393.44
2019-04-25T21:24:37.497Z,97399.53
2019-04-25T21:27:09.504Z,97411.84
2019-04-25T21:29:41.584Z,97415.70
2019-04-25T21:32:15.410Z,97415.97
2019-04-25T21:34:47.468Z,97415.86
2019-04-25T21:37:21.049Z,97416.16
2019-04-25T21:40:02.881Z,97416.31
2019-04-25T21:42:45.122Z,97425.84
2019-04-25T21:45:17.407Z,97431.25
2019-04-25T21:47:49.677Z,97440.83
2019-04-25T21:50:22.097Z,97442.33
2019-04-25T21:52:55.387Z,97440.59
2019-04-25T21:55:28.933Z,97448.14
2019-04-25T21:58:01.155Z,97450.97
2019-04-25T22:00:52.309Z,97455.06
2019-04-25T22:03:25.089Z,97459.31
2019-04-25T22:05:57.268Z,97459.24
2019-04-25T22:08:29.233Z,97461.84
2019-04-25T22:11:01.310Z,97459.69
2019-04-25T22:13:33.436Z,97466.19
2019-04-25T22:16:06.847Z,97463.52
2019-04-25T22:18:39.029Z,97468.03
2019-04-25T22:21:11.411Z,97472.62
2019-04-25T22:23:43.707Z,97463.53
2019-04-25T22:26:15.696Z,97469.96
2019-04-25T22:28:48.074Z,97462.30
2019-04-25T22:31:25.490Z,97446.84
2019-04-25T22:34:03.817Z,97449.14
2019-04-25T22:36:36.302Z,97445.80
2019-04-25T22:39:09.426Z,97442.19
2019-04-25T22:41:46.599Z,97438.75
2019-04-25T22:44:19.854Z,97439.09
2019-04-25T22:46:52.310Z,97465.05
2019-04-25T22:49:24.689Z,97464.27
2019-04-25T22:51:56.691Z,97474.56
2019-04-25T22:54:29.488Z,97475.70
2019-04-25T22:57:02.512Z,97470.97
2019-04-25T22:59:35.110Z,97468.70
2019-04-25T23:02:31.973Z,97457.86
2019-04-25T23:05:20.445Z,97455.92
2019-04-25T23:07:52.536Z,97451.66
2019-04-25T23:10:24.798Z,97447.08
2019-04-25T23:12:56.795Z,97452.69
2019-04-25T23:15:28.770Z,97469.66
2019-04-25T23:18:01.120Z,97458.45
2019-04-25T23:20:33.096Z,97471.53
2019-04-25T23:23:07.658Z,97488.01
2019-04-25T23:25:58.129Z,97485.86
2019-04-25T23:28:33.950Z,97485.86
2019-04-25T23:31:19.372Z,97483.16
2019-04-25T23:33:51.346Z,97480.73
2019-04-25T23:36:23.624Z,97483.70
2019-04-25T23:38:55.613Z,97475.18
2019-04-25T23:41:27.870Z,97475.18
2019-04-25T23:44:00.005Z,97465.95
2019-04-25T23:46:32.288Z,97465.95
2019-04-25T23:49:04.784Z,97472.31
2019-04-25T23:51:36.738Z,97458.27
2019-04-25T23:54:08.963Z,97458.27
2019-04-25T23:56:41.010Z,97465.91
2019-04-25T23:59:13.547Z,97474.16
